createdAt,value
2018-08-03T00:01:23.457Z,96087.70
2018-08-03T00:04:00.608Z,96083.53
2018-08-03T00:06:36.991Z,96075.57
2018-08-03T00:09:12.586Z,96084.08
2018-08-03T00:11:49.106Z,96081.39
2018-08-03T00:14:25.861Z,96077.08
2018-08-03T00:17:00.892Z,96077.52
2018-08-03T00:19:35.755Z,96072.93
2018-08-03T00:22:10.396Z,96074.59
2018-08-03T00:24:44.892Z,96074.76
2018-08-03T00:27:19.368Z,96074.51
2018-08-03T00:29:53.896Z,96068.77
2018-08-03T00:32:28.656Z,96066.30
2018-08-03T00:35:03.700Z,96064.83
2018-08-03T00:37:38.786Z,96066.55
2018-08-03T00:40:13.357Z,96068.22
2018-08-03T00:42:47.715Z,96059.84
2018-08-03T00:45:22.684Z,96061.12
2018-08-03T00:47:58.524Z,96051.89
2018-08-03T00:50:33.380Z,96054.43
2018-08-03T00:53:08.077Z,96050.66
2018-08-03T00:55:42.812Z,96051.20
2018-08-03T00:58:17.139Z,96047.70
2018-08-03T01:00:51.551Z,96049.22
2018-08-03T01:03:26.064Z,96058.22
2018-08-03T01:06:00.897Z,96063.27
2018-08-03T01:08:35.320Z,96055.66
2018-08-03T01:11:09.775Z,96063.27
2018-08-03T01:13:44.794Z,96055.05
2018-08-03T01:16:19.218Z,96053.91
2018-08-03T01:18:54.063Z,96051.23
2018-08-03T01:21:28.507Z,96060.42
2018-08-03T01:24:03.676Z,96063.84
2018-08-03T01:26:38.560Z,96070.20
2018-08-03T01:29:12.931Z,96060.61
2018-08-03T01:31:47.925Z,96057.38
2018-08-03T01:34:22.334Z,96051.19
2018-08-03T01:36:56.987Z,96054.33
2018-08-03T01:39:32.104Z,96053.95
2018-08-03T01:42:06.723Z,96050.91
2018-08-03T01:44:41.308Z,96051.67
2018-08-03T01:47:16.117Z,96045.27
2018-08-03T01:49:50.825Z,96047.14
2018-08-03T01:52:25.676Z,96043.41
2018-08-03T01:55:00.832Z,96035.47
2018-08-03T01:57:41.435Z,96034.11
2018-08-03T02:00:16.116Z,96030.66
2018-08-03T02:02:50.929Z,96036.94
2018-08-03T02:05:25.440Z,96038.52
2018-08-03T02:08:00.293Z,96048.83
2018-08-03T02:10:35.111Z,96049.20
2018-08-03T02:13:09.924Z,96048.44
2018-08-03T02:15:44.762Z,96053.98
2018-08-03T02:18:20.200Z,96050.28
2018-08-03T02:20:54.740Z,96049.66
2018-08-03T02:23:29.644Z,96050.92
2018-08-03T02:26:04.503Z,96049.36
2018-08-03T02:28:38.983Z,96055.70
2018-08-03T02:31:15.016Z,96053.81
2018-08-03T02:33:49.408Z,96052.70
2018-08-03T02:38:57.784Z,96049.16
2018-08-03T02:41:32.688Z,96052.08
2018-08-03T02:44:08.134Z,96055.25
2018-08-03T02:46:42.811Z,96050.72
2018-08-03T02:49:18.022Z,96045.91
2018-08-03T02:51:53.410Z,96055.18
2018-08-03T02:54:27.811Z,96054.03
2018-08-03T02:57:02.652Z,96060.50
2018-08-03T02:59:37.356Z,96051.97
2018-08-03T03:02:12.260Z,96049.77
2018-08-03T03:04:46.714Z,96043.80
2018-08-03T03:07:21.442Z,96047.73
2018-08-03T03:09:56.079Z,96051.23
2018-08-03T03:12:30.570Z,96050.78
2018-08-03T03:15:05.485Z,96051.02
2018-08-03T03:17:40.246Z,96046.88
2018-08-03T03:20:15.052Z,96048.94
2018-08-03T03:22:49.497Z,96047.02
2018-08-03T03:25:24.292Z,96046.73
2018-08-03T03:27:58.848Z,96037.44
2018-08-03T03:30:33.388Z,96040.32
2018-08-03T03:33:08.917Z,96037.36
2018-08-03T03:35:43.460Z,96041.61
2018-08-03T03:38:17.925Z,96034.36
2018-08-03T03:40:52.349Z,96031.44
2018-08-03T03:43:27.012Z,96029.23
2018-08-03T03:46:01.520Z,96025.52
2018-08-03T03:48:36.379Z,96028.44
2018-08-03T03:51:11.168Z,96030.05
2018-08-03T03:53:46.083Z,96020.45
2018-08-03T03:56:20.684Z,96024.70
2018-08-03T03:58:55.388Z,96031.00
2018-08-03T04:01:48.669Z,96024.24
2018-08-03T04:04:23.178Z,96023.59
2018-08-03T04:07:16.042Z,96021.71
2018-08-03T04:09:50.845Z,96031.73
2018-08-03T04:12:25.517Z,96030.45
2018-08-03T04:15:00.167Z,96033.70
2018-08-03T04:17:34.732Z,96034.18
2018-08-03T04:20:09.760Z,96040.03
2018-08-03T04:22:44.679Z,96045.36
2018-08-03T04:25:19.424Z,96044.28
2018-08-03T05:13:28.476Z,96078.11
2018-08-03T05:16:03.158Z,96077.98
2018-08-03T05:18:37.608Z,96082.38
2018-08-03T05:21:12.721Z,96077.09
2018-08-03T05:23:47.684Z,96085.15
2018-08-03T05:26:22.977Z,96082.70
2018-08-03T05:28:57.836Z,96078.41
2018-08-03T05:31:32.623Z,96082.98
2018-08-03T05:34:07.412Z,96082.16
2018-08-03T05:36:42.469Z,96081.59
2018-08-03T05:39:17.267Z,96084.00
2018-08-03T05:41:52.184Z,96086.91
2018-08-03T05:44:26.593Z,96092.88
2018-08-03T05:47:01.266Z,96087.63
2018-08-03T05:49:36.999Z,96090.95
2018-08-03T05:52:11.714Z,96085.81
2018-08-03T05:54:46.723Z,96084.82
2018-08-03T05:57:21.429Z,96085.20
2018-08-03T05:59:56.992Z,96090.17
2018-08-03T06:02:31.855Z,96084.41
2018-08-03T06:05:06.937Z,96083.37
2018-08-03T06:07:41.970Z,96087.20
2018-08-03T06:10:16.624Z,96087.77
2018-08-03T06:12:51.149Z,96084.61
2018-08-03T06:15:25.965Z,96092.80
2018-08-03T06:18:01.093Z,96089.97
2018-08-03T06:20:35.568Z,96093.22
2018-08-03T06:23:10.152Z,96091.37
2018-08-03T06:25:45.006Z,96088.16
2018-08-03T06:28:19.624Z,96090.05
2018-08-03T06:30:54.701Z,96091.70
2018-08-03T06:33:29.246Z,96094.69
2018-08-03T06:36:03.921Z,96097.75
2018-08-03T06:38:42.152Z,96098.55
2018-08-03T06:41:16.844Z,96095.47
2018-08-03T06:43:51.589Z,96095.50
2018-08-03T06:46:44.057Z,96098.16
2018-08-03T06:49:18.472Z,96092.28
2018-08-03T06:51:54.052Z,96096.49
2018-08-03T06:54:29.144Z,96098.19
2018-08-03T06:57:03.536Z,96093.75
2018-08-03T06:59:38.377Z,96094.12
2018-08-03T07:02:13.188Z,96090.16
2018-08-03T07:04:47.722Z,96092.81
2018-08-03T07:07:24.044Z,96091.52
2018-08-03T07:09:58.582Z,96091.04
2018-08-03T07:12:40.135Z,96092.96
2018-08-03T07:15:14.733Z,96087.34
2018-08-03T07:17:49.142Z,96087.92
2018-08-03T07:20:24.036Z,96091.17
2018-08-03T07:22:58.552Z,96087.80
2018-08-03T07:25:33.061Z,96081.22
2018-08-03T07:28:07.622Z,96086.60
2018-08-03T07:30:44.581Z,96089.80
2018-08-03T07:33:19.090Z,96084.48
2018-08-03T07:35:54.240Z,96085.56
2018-08-03T07:38:29.469Z,96084.83
2018-08-03T07:41:04.678Z,96082.45
2018-08-03T07:43:39.612Z,96082.52
2018-08-03T07:46:14.080Z,96085.98
2018-08-03T07:48:48.729Z,96083.58
2018-08-03T07:51:23.328Z,96085.98
2018-08-03T07:53:58.336Z,96081.21
2018-08-03T07:56:33.243Z,96090.30
2018-08-03T07:59:07.727Z,96089.27
2018-08-03T08:01:42.138Z,96080.72
2018-08-03T08:04:16.592Z,96080.47
2018-08-03T08:06:52.741Z,96083.41
2018-08-03T08:09:27.449Z,96075.66
2018-08-03T08:12:02.457Z,96083.11
2018-08-03T08:14:36.974Z,96080.18
2018-08-03T08:17:12.023Z,96086.31
2018-08-03T08:19:46.762Z,96084.14
2018-08-03T08:22:21.668Z,96084.95
2018-08-03T08:24:57.081Z,96077.19
2018-08-03T08:27:31.924Z,96080.34
2018-08-03T08:30:06.936Z,96083.02
2018-08-03T08:32:41.772Z,96079.23
2018-08-03T08:35:20.594Z,96077.56
2018-08-03T08:37:55.318Z,96076.16
2018-08-03T08:40:32.153Z,96079.19
2018-08-03T08:43:07.133Z,96084.00
2018-08-03T08:45:42.051Z,96081.50
2018-08-03T08:48:39.045Z,96087.30
2018-08-03T08:51:14.234Z,96081.83
2018-08-03T08:53:50.809Z,96080.92
2018-08-03T08:56:25.990Z,96083.14
2018-08-03T08:59:01.519Z,96077.91
2018-08-03T09:01:36.178Z,96078.26
2018-08-03T09:04:15.841Z,96075.73
2018-08-03T09:06:51.348Z,96077.45
2018-08-03T09:09:26.217Z,96080.57
2018-08-03T09:12:01.096Z,96079.49
2018-08-03T09:14:36.447Z,96078.52
2018-08-03T09:17:11.367Z,96067.98
2018-08-03T09:19:45.820Z,96072.16
2018-08-03T09:22:20.156Z,96077.30
2018-08-03T09:24:54.569Z,96075.37
2018-08-03T09:27:29.057Z,96068.71
2018-08-03T09:30:03.740Z,96077.67
2018-08-03T09:32:38.628Z,96070.20
2018-08-03T09:35:13.073Z,96064.98
2018-08-03T09:37:47.609Z,96068.34
2018-08-03T09:40:22.064Z,96062.09
2018-08-03T09:42:56.957Z,96063.19
2018-08-03T09:45:32.193Z,96052.34
2018-08-03T09:48:06.769Z,96054.19
2018-08-03T09:50:41.462Z,96048.86
2018-08-03T09:53:16.224Z,96048.06
2018-08-03T09:55:50.788Z,96046.13
2018-08-03T09:58:25.512Z,96041.07
2018-08-03T10:01:05.381Z,96039.93
2018-08-03T10:03:40.551Z,96044.13
2018-08-03T10:06:15.188Z,96036.78
2018-08-03T10:08:50.064Z,96040.55
2018-08-03T10:11:24.901Z,96035.94
2018-08-03T10:13:59.561Z,96028.20
2018-08-03T10:16:33.899Z,96030.93
2018-08-03T10:19:08.740Z,96033.77
2018-08-03T10:21:43.724Z,96028.38
2018-08-03T10:24:18.500Z,96026.38
2018-08-03T10:26:52.956Z,96020.36
2018-08-03T10:29:27.620Z,96024.24
2018-08-03T10:32:02.632Z,96021.36
2018-08-03T10:34:37.791Z,96015.35
2018-08-03T10:37:12.594Z,96012.66
2018-08-03T10:39:46.903Z,96014.36
2018-08-03T10:42:21.401Z,96012.36
2018-08-03T10:44:56.012Z,96006.84
2018-08-03T10:47:30.709Z,96010.21
2018-08-03T10:50:05.648Z,96007.41
2018-08-03T10:52:40.400Z,96000.70
2018-08-03T10:55:15.775Z,96000.02
2018-08-03T10:57:51.014Z,96004.70
2018-08-03T11:00:28.794Z,96003.86
2018-08-03T11:03:05.783Z,95991.83
2018-08-03T11:05:40.908Z,95993.89
2018-08-03T11:08:15.760Z,95990.16
2018-08-03T11:10:50.817Z,95980.85
2018-08-03T11:13:25.388Z,95983.53
2018-08-03T11:15:59.728Z,95975.17
2018-08-03T11:18:34.128Z,95975.70
2018-08-03T11:21:09.244Z,95974.95
2018-08-03T11:23:45.428Z,95971.38
2018-08-03T11:26:20.308Z,95966.91
2018-08-03T11:29:11.119Z,95963.38
2018-08-03T11:31:45.448Z,95963.02
2018-08-03T11:34:20.413Z,95966.06
2018-08-03T11:36:55.104Z,95966.48
2018-08-03T11:39:29.988Z,95958.36
2018-08-03T11:42:04.648Z,95963.72
2018-08-03T11:44:39.548Z,95952.99
2018-08-03T11:47:13.850Z,95952.86
2018-08-03T11:49:48.665Z,95950.53
2018-08-03T11:52:23.626Z,95953.31
2018-08-03T11:54:57.937Z,95945.69
2018-08-03T11:57:32.904Z,95952.45
2018-08-03T12:00:08.372Z,95943.73
2018-08-03T12:02:42.998Z,95942.05
2018-08-03T12:05:23.217Z,95946.30
2018-08-03T12:07:57.674Z,95944.42
2018-08-03T12:10:32.957Z,95942.14
2018-08-03T12:13:07.429Z,95940.16
2018-08-03T12:15:41.745Z,95936.91
2018-08-03T12:18:16.628Z,95939.52
2018-08-03T12:20:51.325Z,95943.02
2018-08-03T12:23:31.455Z,95936.26
2018-08-03T12:26:12.473Z,95927.89
2018-08-03T12:28:47.349Z,95930.94
2018-08-03T12:31:22.147Z,95927.05
2018-08-03T12:33:58.343Z,95928.12
2018-08-03T12:36:44.332Z,95930.82
2018-08-03T12:39:19.129Z,95923.37
2018-08-03T12:42:01.240Z,95923.92
2018-08-03T12:44:42.054Z,95922.37
2018-08-03T12:47:18.062Z,95926.16
2018-08-03T12:49:53.704Z,95925.14
2018-08-03T12:52:29.537Z,95922.41
2018-08-03T12:55:04.211Z,95923.56
2018-08-03T12:57:38.748Z,95915.34
2018-08-03T13:00:14.144Z,95920.33
2018-08-03T13:02:48.426Z,95916.27
2018-08-03T13:05:22.841Z,95920.95
2018-08-03T13:08:02.396Z,95906.37
2018-08-03T13:10:40.960Z,95895.08
2018-08-03T13:13:18.899Z,95899.69
2018-08-03T13:15:53.581Z,95902.15
2018-08-03T13:18:27.996Z,95902.94
2018-08-03T13:21:41.076Z,95905.05
2018-08-03T13:24:15.873Z,95901.70
2018-08-03T13:26:50.671Z,95897.78
2018-08-03T13:29:25.454Z,95903.91
2018-08-03T13:32:02.650Z,95902.88
2018-08-03T13:34:37.904Z,95895.23
2018-08-03T13:37:13.403Z,95897.58
2018-08-03T13:39:47.982Z,95891.77
2018-08-03T13:42:22.632Z,95883.41
2018-08-03T13:44:57.021Z,95879.48
2018-08-03T13:47:31.444Z,95880.14
2018-08-03T13:50:06.229Z,95882.51
2018-08-03T13:52:40.567Z,95879.14
2018-08-03T13:55:15.621Z,95862.91
2018-08-03T13:57:55.200Z,95859.98
2018-08-03T14:00:29.990Z,95859.39
2018-08-03T14:03:04.497Z,95860.92
2018-08-03T14:05:39.543Z,95864.33
2018-08-03T14:08:13.892Z,95851.16
2018-08-03T14:10:48.743Z,95850.59
2018-08-03T14:13:23.972Z,95860.48
2018-08-03T14:15:58.512Z,95858.39
2018-08-03T14:18:33.556Z,95846.34
2018-08-03T14:21:08.983Z,95843.27
2018-08-03T14:23:44.361Z,95828.02
2018-08-03T14:26:23.591Z,95841.63
2018-08-03T14:28:58.056Z,95822.48
2018-08-03T14:31:33.481Z,95829.19
2018-08-03T14:34:08.196Z,95828.48
2018-08-03T14:36:43.318Z,95827.77
2018-08-03T14:39:18.328Z,95828.56
2018-08-03T14:41:53.301Z,95828.84
2018-08-03T14:44:28.856Z,95821.86
2018-08-03T14:47:03.714Z,95819.03
2018-08-03T14:49:38.534Z,95817.51
2018-08-03T14:52:13.836Z,95812.92
2018-08-03T14:54:48.285Z,95806.84
2018-08-03T14:57:24.210Z,95807.75
2018-08-03T14:59:58.704Z,95811.16
2018-08-03T15:02:34.036Z,95812.62
2018-08-03T15:05:08.597Z,95811.66
2018-08-03T15:07:43.235Z,95808.81
2018-08-03T15:10:17.792Z,95799.72
2018-08-03T15:12:52.555Z,95803.61
2018-08-03T15:15:27.367Z,95795.64
2018-08-03T15:18:02.125Z,95795.70
2018-08-03T15:20:44.159Z,95800.42
2018-08-03T15:23:19.017Z,95800.44
2018-08-03T15:25:53.952Z,95805.55
2018-08-03T15:28:30.133Z,95806.05
2018-08-03T15:31:04.875Z,95807.35
2018-08-03T15:33:39.838Z,95802.80
2018-08-03T15:36:14.904Z,95800.60
2018-08-03T15:38:49.666Z,95803.73
2018-08-03T15:41:24.921Z,95804.71
2018-08-03T15:43:59.805Z,95793.73
2018-08-03T15:46:34.383Z,95794.73
2018-08-03T15:49:09.452Z,95788.39
2018-08-03T15:51:44.004Z,95784.30
2018-08-03T15:54:18.727Z,95781.07
2018-08-03T15:56:53.275Z,95779.86
2018-08-03T15:59:27.888Z,95776.05
2018-08-03T16:02:03.290Z,95771.52
2018-08-03T16:04:38.077Z,95777.46
2018-08-03T16:07:12.603Z,95770.59
2018-08-03T16:09:47.754Z,95774.98
2018-08-03T16:12:24.029Z,95776.11
2018-08-03T16:15:00.656Z,95779.86
2018-08-03T16:17:37.169Z,95772.88
2018-08-03T16:20:31.200Z,95764.75
2018-08-03T16:23:06.309Z,95765.41
2018-08-03T16:25:45.265Z,95765.06
2018-08-03T16:28:19.728Z,95762.55
2018-08-03T16:30:54.076Z,95760.83
2018-08-03T16:33:28.441Z,95765.07
2018-08-03T16:36:03.323Z,95755.79
2018-08-03T16:38:38.242Z,95758.31
2018-08-03T16:41:13.477Z,95756.74
2018-08-03T16:43:48.476Z,95759.84
2018-08-03T16:46:26.321Z,95759.49
2018-08-03T16:49:00.952Z,95750.61
2018-08-03T16:51:39.188Z,95743.00
2018-08-03T16:54:15.389Z,95746.80
2018-08-03T16:56:56.905Z,95748.29
2018-08-03T16:59:33.660Z,95749.51
2018-08-03T17:02:08.721Z,95748.90
2018-08-03T17:04:43.224Z,95743.17
2018-08-03T17:07:18.825Z,95749.30
2018-08-03T17:09:53.985Z,95744.62
2018-08-03T17:12:37.923Z,95753.47
2018-08-03T17:15:18.054Z,95758.16
2018-08-03T17:17:53.194Z,95749.02
2018-08-03T17:20:28.352Z,95753.47
2018-08-03T17:23:05.625Z,95749.62
2018-08-03T17:25:48.019Z,95746.66
2018-08-03T17:28:22.885Z,95744.44
2018-08-03T17:30:57.481Z,95749.48
2018-08-03T17:33:32.179Z,95745.81
2018-08-03T17:36:07.801Z,95750.97
2018-08-03T17:38:44.133Z,95748.52
2018-08-03T17:41:18.990Z,95749.34
2018-08-03T17:43:53.303Z,95751.03
2018-08-03T17:46:31.676Z,95746.75
2018-08-03T17:49:06.048Z,95755.55
2018-08-03T17:51:40.714Z,95754.64
2018-08-03T17:54:15.245Z,95748.90
2018-08-03T17:56:50.284Z,95752.20
2018-08-03T17:59:25.111Z,95753.14
2018-08-03T18:02:00.090Z,95750.08
2018-08-03T18:04:34.773Z,95756.15
2018-08-03T18:07:09.197Z,95751.77
2018-08-03T18:09:43.629Z,95755.80
2018-08-03T18:12:18.816Z,95756.11
2018-08-03T18:14:53.348Z,95763.10
2018-08-03T18:17:27.641Z,95760.09
2018-08-03T18:20:02.117Z,95763.22
2018-08-03T18:22:36.852Z,95764.38
2018-08-03T18:25:12.294Z,95764.84
2018-08-03T18:27:47.120Z,95771.98
2018-08-03T18:30:21.507Z,95770.80
2018-08-03T18:33:05.413Z,95772.08
2018-08-03T18:35:46.962Z,95775.48
2018-08-03T18:38:27.388Z,95775.20
2018-08-03T18:41:02.231Z,95780.21
2018-08-03T18:43:41.213Z,95778.98
2018-08-03T18:46:16.476Z,95781.55
2018-08-03T18:48:52.012Z,95777.27
2018-08-03T18:51:27.152Z,95782.95
2018-08-03T18:54:03.388Z,95776.55
2018-08-03T18:56:38.033Z,95784.56
2018-08-03T18:59:14.990Z,95785.58
2018-08-03T19:01:49.803Z,95792.22
2018-08-03T19:04:24.136Z,95790.33
2018-08-03T19:06:59.508Z,95794.96
2018-08-03T19:09:34.759Z,95802.92
2018-08-03T19:12:10.115Z,95804.34
2018-08-03T19:14:49.796Z,95813.52
2018-08-03T19:17:24.825Z,95814.98
2018-08-03T19:19:59.803Z,95818.05
2018-08-03T19:22:35.086Z,95823.29
2018-08-03T19:25:09.891Z,95823.17
2018-08-03T19:27:44.389Z,95831.28
2018-08-03T19:30:19.084Z,95823.04
2018-08-03T19:32:54.108Z,95819.63
2018-08-03T19:35:32.641Z,95821.38
2018-08-03T19:38:08.448Z,95826.52
2018-08-03T19:40:43.527Z,95823.63
2018-08-03T19:43:18.354Z,95817.58
2018-08-03T19:45:53.128Z,95826.14
2018-08-03T19:48:27.414Z,95824.06
2018-08-03T19:51:02.080Z,95825.91
2018-08-03T19:53:36.457Z,95828.67
2018-08-03T19:56:11.276Z,95827.94
2018-08-03T19:58:46.495Z,95828.52
2018-08-03T20:01:21.549Z,95824.32
2018-08-03T20:03:59.396Z,95817.41
2018-08-03T20:06:35.512Z,95822.00
2018-08-03T20:09:11.645Z,95822.61
2018-08-03T20:11:48.977Z,95820.53
2018-08-03T20:14:23.554Z,95826.16
2018-08-03T20:17:01.519Z,95820.61
2018-08-03T20:19:36.024Z,95822.48
2018-08-03T20:22:23.669Z,95820.34
2018-08-03T20:24:59.718Z,95829.44
2018-08-03T20:27:35.502Z,95827.28
2018-08-03T20:30:16.761Z,95829.15
2018-08-03T20:33:02.348Z,95820.63
2018-08-03T20:35:37.172Z,95830.52
2018-08-03T20:38:11.838Z,95828.16
2018-08-03T20:40:46.604Z,95832.70
2018-08-03T20:43:21.125Z,95832.44
2018-08-03T20:45:56.110Z,95829.77
2018-08-03T20:48:34.717Z,95825.80
2018-08-03T20:51:09.464Z,95824.73
2018-08-03T20:53:43.795Z,95819.66
2018-08-03T20:56:19.201Z,95817.27
2018-08-03T20:58:54.093Z,95824.72
2018-08-03T21:01:29.720Z,95823.39
2018-08-03T21:04:04.932Z,95822.34
2018-08-03T21:06:40.235Z,95821.81
2018-08-03T21:09:15.585Z,95819.66
2018-08-03T21:11:50.589Z,95833.49
2018-08-03T21:14:29.271Z,95825.79
2018-08-03T21:17:04.065Z,95823.38
2018-08-03T21:19:41.249Z,95821.78
2018-08-03T21:22:17.485Z,95827.34
2018-08-03T21:24:52.809Z,95828.95
2018-08-03T21:27:27.997Z,95824.16
2018-08-03T21:30:03.413Z,95831.06
2018-08-03T21:32:38.744Z,95826.55
2018-08-03T21:35:14.036Z,95829.18
2018-08-03T21:37:48.443Z,95825.16
2018-08-03T21:40:23.711Z,95821.44
2018-08-03T21:42:58.736Z,95821.94
2018-08-03T21:45:33.189Z,95826.98
2018-08-03T21:48:12.274Z,95828.05
2018-08-03T21:51:04.164Z,95822.16
2018-08-03T21:53:39.081Z,95833.02
2018-08-03T21:56:14.074Z,95832.47
2018-08-03T21:58:55.168Z,95838.83
2018-08-03T22:01:30.384Z,95831.07
2018-08-03T22:04:04.718Z,95833.97
2018-08-03T22:10:04.123Z,95834.94
2018-08-03T22:12:59.044Z,95824.53
2018-08-03T22:34:22.326Z,95830.52
2018-08-03T22:43:36.889Z,95824.05
2018-08-03T22:46:44.066Z,95822.71
2018-08-03T22:50:18.940Z,95820.52
2018-08-03T22:53:16.213Z,95818.26
2018-08-03T23:12:26.766Z,95809.59
2018-08-03T23:15:03.887Z,95810.64
2018-08-03T23:17:55.793Z,95805.53
2018-08-03T23:20:45.500Z,95801.25
2018-08-03T23:23:38.537Z,95800.43
2018-08-03T23:26:14.429Z,95797.77
2018-08-03T23:28:55.108Z,95801.01
2018-08-03T23:31:33.459Z,95796.05
2018-08-03T23:34:15.167Z,95794.45
2018-08-03T23:36:53.354Z,95790.22
2018-08-03T23:39:37.792Z,95793.39
2018-08-03T23:42:14.013Z,95792.00
2018-08-03T23:44:54.624Z,95790.64
2018-08-03T23:47:30.828Z,95786.29
2018-08-03T23:50:19.962Z,95790.21
2018-08-03T23:52:58.293Z,95790.92
2018-08-03T23:55:36.630Z,95781.86
2018-08-03T23:58:14.083Z,95789.24
